sensor_id;sensor_type;location;lat;lon;timestamp;temperature;humidity
7129;DHT22;3606;52.930;8.644;2023-03-12T00:01:17;-1.90;99.90
7129;DHT22;3606;52.930;8.644;2023-03-12T00:03:44;-1.90;99.90
7129;DHT22;3606;52.930;8.644;2023-03-12T00:06:10;-1.90;99.90
7129;DHT22;3606;52.930;8.644;2023-03-12T00:08:36;-1.80;99.90
7129;DHT22;3606;52.930;8.644;2023-03-12T00:11:09;-1.70;99.90
7129;DHT22;3606;52.930;8.644;2023-03-12T00:13:35;-1.80;99.90
7129;DHT22;3606;52.930;8.644;2023-03-12T00:16:13;-1.90;99.90
7129;DHT22;3606;52.930;8.644;2023-03-12T00:18:39;-2.10;99.90
7129;DHT22;3606;52.930;8.644;2023-03-12T00:21:06;-2.20;99.90
7129;DHT22;3606;52.930;8.644;2023-03-12T00:23:32;-2.20;99.90
7129;DHT22;3606;52.930;8.644;2023-03-12T00:26:03;-2.20;99.90
7129;DHT22;3606;52.930;8.644;2023-03-12T00:28:30;-2.20;99.90
7129;DHT22;3606;52.930;8.644;2023-03-12T00:30:56;-2.20;99.90
7129;DHT22;3606;52.930;8.644;2023-03-12T00:33:24;-2.20;99.90
7129;DHT22;3606;52.930;8.644;2023-03-12T00:35:50;-2.20;99.90
7129;DHT22;3606;52.930;8.644;2023-03-12T00:38:16;-2.20;99.90
7129;DHT22;3606;52.930;8.644;2023-03-12T00:40:41;-2.10;99.90
7129;DHT22;3606;52.930;8.644;2023-03-12T00:43:07;-2.20;99.90
7129;DHT22;3606;52.930;8.644;2023-03-12T00:45:32;-2.30;99.90
7129;DHT22;3606;52.930;8.644;2023-03-12T00:47:58;-2.30;99.90
7129;DHT22;3606;52.930;8.644;2023-03-12T00:50:24;-2.40;99.90
7129;DHT22;3606;52.930;8.644;2023-03-12T00:52:50;-2.40;99.90
7129;DHT22;3606;52.930;8.644;2023-03-12T00:55:16;-2.20;99.90
7129;DHT22;3606;52.930;8.644;2023-03-12T00:57:41;-2.20;99.90
7129;DHT22;3606;52.930;8.644;2023-03-12T01:00:09;-2.10;99.90
7129;DHT22;3606;52.930;8.644;2023-03-12T01:02:38;-2.10;99.90
7129;DHT22;3606;52.930;8.644;2023-03-12T01:05:09;-2.00;99.90
7129;DHT22;3606;52.930;8.644;2023-03-12T01:07:35;-2.10;99.90
7129;DHT22;3606;52.930;8.644;2023-03-12T01:10:01;-2.30;99.90
7129;DHT22;3606;52.930;8.644;2023-03-12T01:12:26;-2.30;99.90
7129;DHT22;3606;52.930;8.644;2023-03-12T01:14:52;-2.40;99.90
7129;DHT22;3606;52.930;8.644;2023-03-12T01:17:18;-2.40;99.90
7129;DHT22;3606;52.930;8.644;2023-03-12T01:19:43;-2.40;99.90
7129;DHT22;3606;52.930;8.644;2023-03-12T01:22:09;-2.50;99.90
7129;DHT22;3606;52.930;8.644;2023-03-12T01:24:35;-2.60;99.90
7129;DHT22;3606;52.930;8.644;2023-03-12T01:27:00;-2.60;99.90
7129;DHT22;3606;52.930;8.644;2023-03-12T01:29:26;-2.70;99.90
7129;DHT22;3606;52.930;8.644;2023-03-12T01:31:52;-2.70;99.90
7129;DHT22;3606;52.930;8.644;2023-03-12T01:34:17;-2.80;99.90
7129;DHT22;3606;52.930;8.644;2023-03-12T01:36:43;-2.80;99.90
7129;DHT22;3606;52.930;8.644;2023-03-12T01:39:10;-2.80;99.90
7129;DHT22;3606;52.930;8.644;2023-03-12T01:41:36;-2.80;99.90
7129;DHT22;3606;52.930;8.644;2023-03-12T01:44:02;-2.80;99.90
7129;DHT22;3606;52.930;8.644;2023-03-12T01:46:35;-2.80;99.90
7129;DHT22;3606;52.930;8.644;2023-03-12T01:57:10;-2.90;99.90
7129;DHT22;3606;52.930;8.644;2023-03-12T01:59:46;-3.00;99.90
7129;DHT22;3606;52.930;8.644;2023-03-12T02:02:15;-3.10;99.90
7129;DHT22;3606;52.930;8.644;2023-03-12T02:04:42;-3.20;99.90
7129;DHT22;3606;52.930;8.644;2023-03-12T02:07:10;-3.30;99.90
7129;DHT22;3606;52.930;8.644;2023-03-12T02:09:40;-3.30;99.90
7129;DHT22;3606;52.930;8.644;2023-03-12T02:12:07;-3.30;99.90
7129;DHT22;3606;52.930;8.644;2023-03-12T02:14:33;-3.30;99.90
7129;DHT22;3606;52.930;8.644;2023-03-12T02:16:59;-3.30;99.90
7129;DHT22;3606;52.930;8.644;2023-03-12T02:22:52;-3.30;99.90
7129;DHT22;3606;52.930;8.644;2023-03-12T02:25:30;-3.10;99.90
7129;DHT22;3606;52.930;8.644;2023-03-12T02:28:01;-3.10;99.90
7129;DHT22;3606;52.930;8.644;2023-03-12T02:30:29;-3.10;99.90
7129;DHT22;3606;52.930;8.644;2023-03-12T02:32:55;-3.00;99.90
7129;DHT22;3606;52.930;8.644;2023-03-12T02:35:22;-3.00;99.90
7129;DHT22;3606;52.930;8.644;2023-03-12T02:37:53;-3.00;99.90
7129;DHT22;3606;52.930;8.644;2023-03-12T02:42:57;-3.00;99.90
7129;DHT22;3606;52.930;8.644;2023-03-12T02:45:23;-2.90;99.90
7129;DHT22;3606;52.930;8.644;2023-03-12T02:47:50;-2.80;99.90
7129;DHT22;3606;52.930;8.644;2023-03-12T02:50:15;-2.70;99.90
7129;DHT22;3606;52.930;8.644;2023-03-12T02:52:41;-2.70;99.90
7129;DHT22;3606;52.930;8.644;2023-03-12T02:55:07;-2.70;99.90
7129;DHT22;3606;52.930;8.644;2023-03-12T02:57:33;-2.70;99.90
7129;DHT22;3606;52.930;8.644;2023-03-12T03:00:06;-2.70;99.90
7129;DHT22;3606;52.930;8.644;2023-03-12T03:02:33;-2.80;99.90
7129;DHT22;3606;52.930;8.644;2023-03-12T03:04:58;-2.70;99.90
7129;DHT22;3606;52.930;8.644;2023-03-12T03:07:24;-2.70;99.90
7129;DHT22;3606;52.930;8.644;2023-03-12T03:09:50;-2.60;99.90
7129;DHT22;3606;52.930;8.644;2023-03-12T03:12:15;-2.60;99.90
7129;DHT22;3606;52.930;8.644;2023-03-12T03:14:41;-2.60;99.90
7129;DHT22;3606;52.930;8.644;2023-03-12T03:17:06;-2.60;99.90
7129;DHT22;3606;52.930;8.644;2023-03-12T03:19:32;-2.60;99.90
7129;DHT22;3606;52.930;8.644;2023-03-12T03:21:57;-2.60;99.90
7129;DHT22;3606;52.930;8.644;2023-03-12T03:24:23;-2.70;99.90
7129;DHT22;3606;52.930;8.644;2023-03-12T03:26:49;-2.70;99.90
7129;DHT22;3606;52.930;8.644;2023-03-12T03:29:14;-2.60;99.90
7129;DHT22;3606;52.930;8.644;2023-03-12T03:31:41;-2.60;99.90
7129;DHT22;3606;52.930;8.644;2023-03-12T03:34:07;-2.70;99.90
7129;DHT22;3606;52.930;8.644;2023-03-12T03:36:32;-2.70;99.90
7129;DHT22;3606;52.930;8.644;2023-03-12T03:38:58;-2.60;99.90
7129;DHT22;3606;52.930;8.644;2023-03-12T03:41:24;-2.70;99.90
7129;DHT22;3606;52.930;8.644;2023-03-12T03:43:50;-2.70;99.90
7129;DHT22;3606;52.930;8.644;2023-03-12T03:46:17;-2.60;99.90
7129;DHT22;3606;52.930;8.644;2023-03-12T03:48:43;-2.60;99.90
7129;DHT22;3606;52.930;8.644;2023-03-12T03:51:09;-2.50;99.90
7129;DHT22;3606;52.930;8.644;2023-03-12T03:53:35;-2.40;99.90
7129;DHT22;3606;52.930;8.644;2023-03-12T03:56:08;-2.40;99.90
7129;DHT22;3606;52.930;8.644;2023-03-12T03:58:34;-2.30;99.90
7129;DHT22;3606;52.930;8.644;2023-03-12T04:01:00;-2.30;99.90
7129;DHT22;3606;52.930;8.644;2023-03-12T04:03:26;-2.30;99.90
7129;DHT22;3606;52.930;8.644;2023-03-12T04:05:56;-2.20;99.90
7129;DHT22;3606;52.930;8.644;2023-03-12T04:08:22;-2.20;99.90
7129;DHT22;3606;52.930;8.644;2023-03-12T04:10:48;-2.20;99.90
7129;DHT22;3606;52.930;8.644;2023-03-12T04:13:14;-2.20;99.90
7129;DHT22;3606;52.930;8.644;2023-03-12T04:15:48;-2.30;99.90
7129;DHT22;3606;52.930;8.644;2023-03-12T04:18:14;-2.30;99.90
7129;DHT22;3606;52.930;8.644;2023-03-12T04:20:40;-2.30;99.90
7129;DHT22;3606;52.930;8.644;2023-03-12T04:23:05;-2.30;99.90
7129;DHT22;3606;52.930;8.644;2023-03-12T04:25:31;-2.30;99.90
7129;DHT22;3606;52.930;8.644;2023-03-12T04:27:57;-2.20;99.90
7129;DHT22;3606;52.930;8.644;2023-03-12T04:30:22;-2.30;99.90
7129;DHT22;3606;52.930;8.644;2023-03-12T04:32:48;-2.30;99.90
7129;DHT22;3606;52.930;8.644;2023-03-12T04:35:13;-2.30;99.90
7129;DHT22;3606;52.930;8.644;2023-03-12T04:37:39;-2.30;99.90
7129;DHT22;3606;52.930;8.644;2023-03-12T04:40:05;-2.30;99.90
7129;DHT22;3606;52.930;8.644;2023-03-12T04:42:35;-2.30;99.90
7129;DHT22;3606;52.930;8.644;2023-03-12T04:45:02;-2.30;99.90
7129;DHT22;3606;52.930;8.644;2023-03-12T04:47:29;-2.30;99.90
7129;DHT22;3606;52.930;8.644;2023-03-12T04:49:55;-2.30;99.90
7129;DHT22;3606;52.930;8.644;2023-03-12T04:52:21;-2.20;99.90
7129;DHT22;3606;52.930;8.644;2023-03-12T04:54:46;-2.10;99.90
7129;DHT22;3606;52.930;8.644;2023-03-12T04:57:12;-2.10;99.90
7129;DHT22;3606;52.930;8.644;2023-03-12T04:59:37;-2.00;99.90
7129;DHT22;3606;52.930;8.644;2023-03-12T05:02:03;-2.00;99.90
7129;DHT22;3606;52.930;8.644;2023-03-12T05:04:29;-1.90;99.90
7129;DHT22;3606;52.930;8.644;2023-03-12T05:06:54;-1.90;99.90
7129;DHT22;3606;52.930;8.644;2023-03-12T05:09:20;-1.80;99.90
7129;DHT22;3606;52.930;8.644;2023-03-12T05:11:46;-1.70;99.90
7129;DHT22;3606;52.930;8.644;2023-03-12T05:14:11;-1.60;99.90
7129;DHT22;3606;52.930;8.644;2023-03-12T05:16:37;-1.50;99.90
7129;DHT22;3606;52.930;8.644;2023-03-12T05:19:02;-1.40;99.90
7129;DHT22;3606;52.930;8.644;2023-03-12T05:21:28;-1.40;99.90
7129;DHT22;3606;52.930;8.644;2023-03-12T05:23:54;-1.40;99.90
7129;DHT22;3606;52.930;8.644;2023-03-12T05:26:29;-1.40;99.90
7129;DHT22;3606;52.930;8.644;2023-03-12T05:29:02;-1.40;99.90
7129;DHT22;3606;52.930;8.644;2023-03-12T05:31:28;-1.40;99.90
7129;DHT22;3606;52.930;8.644;2023-03-12T05:33:57;-1.40;99.90
7129;DHT22;3606;52.930;8.644;2023-03-12T05:36:23;-1.30;99.90
7129;DHT22;3606;52.930;8.644;2023-03-12T05:38:48;-1.20;99.90
7129;DHT22;3606;52.930;8.644;2023-03-12T05:41:23;-1.20;99.90
7129;DHT22;3606;52.930;8.644;2023-03-12T05:43:51;-1.10;99.90
7129;DHT22;3606;52.930;8.644;2023-03-12T05:46:17;-1.20;99.90
7129;DHT22;3606;52.930;8.644;2023-03-12T05:48:42;-1.10;99.90
7129;DHT22;3606;52.930;8.644;2023-03-12T05:51:08;-1.20;99.90
7129;DHT22;3606;52.930;8.644;2023-03-12T05:53:34;-1.10;99.90
7129;DHT22;3606;52.930;8.644;2023-03-12T05:56:11;-1.10;99.90
7129;DHT22;3606;52.930;8.644;2023-03-12T05:58:38;-1.10;99.90
7129;DHT22;3606;52.930;8.644;2023-03-12T06:01:12;-1.00;99.90
7129;DHT22;3606;52.930;8.644;2023-03-12T06:03:38;-1.00;99.90
7129;DHT22;3606;52.930;8.644;2023-03-12T06:06:04;-0.90;99.90
7129;DHT22;3606;52.930;8.644;2023-03-12T06:08:29;-0.80;99.90
7129;DHT22;3606;52.930;8.644;2023-03-12T06:10:55;-0.80;99.90
7129;DHT22;3606;52.930;8.644;2023-03-12T06:13:21;-0.70;99.90
7129;DHT22;3606;52.930;8.644;2023-03-12T06:15:47;-0.70;99.90
7129;DHT22;3606;52.930;8.644;2023-03-12T06:18:13;-0.60;99.90
7129;DHT22;3606;52.930;8.644;2023-03-12T06:20:38;-0.50;99.90
7129;DHT22;3606;52.930;8.644;2023-03-12T06:23:04;-0.40;99.90
7129;DHT22;3606;52.930;8.644;2023-03-12T06:25:29;-0.40;99.90
7129;DHT22;3606;52.930;8.644;2023-03-12T06:27:55;-0.30;99.90
7129;DHT22;3606;52.930;8.644;2023-03-12T06:30:21;-0.30;99.90
7129;DHT22;3606;52.930;8.644;2023-03-12T06:32:47;-0.30;99.90
7129;DHT22;3606;52.930;8.644;2023-03-12T06:35:12;-0.20;99.90
7129;DHT22;3606;52.930;8.644;2023-03-12T06:37:38;-0.20;99.90
7129;DHT22;3606;52.930;8.644;2023-03-12T06:40:04;-0.20;99.90
7129;DHT22;3606;52.930;8.644;2023-03-12T06:42:32;-0.20;99.90
7129;DHT22;3606;52.930;8.644;2023-03-12T06:44:57;-0.20;99.90
7129;DHT22;3606;52.930;8.644;2023-03-12T06:47:23;-0.10;99.90
7129;DHT22;3606;52.930;8.644;2023-03-12T06:49:49;-0.10;99.90
7129;DHT22;3606;52.930;8.644;2023-03-12T06:52:14;0.00;99.90
7129;DHT22;3606;52.930;8.644;2023-03-12T06:54:40;0.10;99.90
7129;DHT22;3606;52.930;8.644;2023-03-12T06:57:05;0.10;99.90
7129;DHT22;3606;52.930;8.644;2023-03-12T06:59:31;0.40;99.90
7129;DHT22;3606;52.930;8.644;2023-03-12T07:01:56;0.70;99.90
7129;DHT22;3606;52.930;8.644;2023-03-12T07:04:22;0.90;99.90
7129;DHT22;3606;52.930;8.644;2023-03-12T07:06:48;0.90;99.90
7129;DHT22;3606;52.930;8.644;2023-03-12T07:09:16;1.00;99.90
7129;DHT22;3606;52.930;8.644;2023-03-12T07:11:43;1.00;99.90
7129;DHT22;3606;52.930;8.644;2023-03-12T07:14:09;1.20;99.90
7129;DHT22;3606;52.930;8.644;2023-03-12T07:16:34;1.30;99.90
7129;DHT22;3606;52.930;8.644;2023-03-12T07:19:00;1.50;99.90
7129;DHT22;3606;52.930;8.644;2023-03-12T07:21:26;1.60;99.90
7129;DHT22;3606;52.930;8.644;2023-03-12T07:23:51;1.70;99.90
7129;DHT22;3606;52.930;8.644;2023-03-12T07:26:18;1.90;99.90
7129;DHT22;3606;52.930;8.644;2023-03-12T07:28:44;2.10;50.30
7129;DHT22;3606;52.930;8.644;2023-03-12T07:31:09;2.20;1.00
7129;DHT22;3606;52.930;8.644;2023-03-12T07:33:35;2.20;1.00
7129;DHT22;3606;52.930;8.644;2023-03-12T07:36:01;2.20;1.00
7129;DHT22;3606;52.930;8.644;2023-03-12T07:38:27;2.20;1.00
7129;DHT22;3606;52.930;8.644;2023-03-12T07:40:54;2.30;1.00
7129;DHT22;3606;52.930;8.644;2023-03-12T07:43:19;2.20;1.00
7129;DHT22;3606;52.930;8.644;2023-03-12T07:45:45;2.20;1.00
7129;DHT22;3606;52.930;8.644;2023-03-12T07:48:10;2.00;1.00
7129;DHT22;3606;52.930;8.644;2023-03-12T07:50:36;2.10;1.00
7129;DHT22;3606;52.930;8.644;2023-03-12T07:53:03;2.10;1.00
7129;DHT22;3606;52.930;8.644;2023-03-12T07:55:29;2.20;1.00
7129;DHT22;3606;52.930;8.644;2023-03-12T07:57:55;2.30;1.00
7129;DHT22;3606;52.930;8.644;2023-03-12T08:00:23;2.30;1.00
7129;DHT22;3606;52.930;8.644;2023-03-12T08:02:49;2.30;1.00
7129;DHT22;3606;52.930;8.644;2023-03-12T08:05:14;2.30;1.00
7129;DHT22;3606;52.930;8.644;2023-03-12T08:07:40;2.30;1.00
7129;DHT22;3606;52.930;8.644;2023-03-12T08:10:07;2.30;1.00
7129;DHT22;3606;52.930;8.644;2023-03-12T08:12:33;2.40;1.00
7129;DHT22;3606;52.930;8.644;2023-03-12T08:14:59;2.60;1.00
7129;DHT22;3606;52.930;8.644;2023-03-12T08:17:24;2.90;1.00
7129;DHT22;3606;52.930;8.644;2023-03-12T08:19:50;3.30;1.00
7129;DHT22;3606;52.930;8.644;2023-03-12T08:22:16;3.70;99.90
7129;DHT22;3606;52.930;8.644;2023-03-12T08:24:42;3.90;99.90
7129;DHT22;3606;52.930;8.644;2023-03-12T08:27:08;4.20;99.90
7129;DHT22;3606;52.930;8.644;2023-03-12T08:29:33;4.10;1.00
7129;DHT22;3606;52.930;8.644;2023-03-12T08:32:00;4.00;99.90
7129;DHT22;3606;52.930;8.644;2023-03-12T08:34:25;3.90;1.00
7129;DHT22;3606;52.930;8.644;2023-03-12T08:36:51;3.90;4.60
7129;DHT22;3606;52.930;8.644;2023-03-12T08:39:17;3.90;65.40
7129;DHT22;3606;52.930;8.644;2023-03-12T08:41:42;4.10;99.90
7129;DHT22;3606;52.930;8.644;2023-03-12T08:44:08;4.30;1.00
7129;DHT22;3606;52.930;8.644;2023-03-12T08:46:33;4.60;1.00
7129;DHT22;3606;52.930;8.644;2023-03-12T08:48:59;4.90;1.00
7129;DHT22;3606;52.930;8.644;2023-03-12T08:51:25;5.30;99.90
7129;DHT22;3606;52.930;8.644;2023-03-12T08:53:50;5.40;1.00
7129;DHT22;3606;52.930;8.644;2023-03-12T08:56:16;5.40;99.90
7129;DHT22;3606;52.930;8.644;2023-03-12T08:58:42;5.80;99.90
7129;DHT22;3606;52.930;8.644;2023-03-12T09:01:09;6.60;99.90
7129;DHT22;3606;52.930;8.644;2023-03-12T09:03:35;6.70;99.90
7129;DHT22;3606;52.930;8.644;2023-03-12T09:06:07;7.10;99.90
7129;DHT22;3606;52.930;8.644;2023-03-12T09:08:38;7.10;1.00
7129;DHT22;3606;52.930;8.644;2023-03-12T09:11:04;7.00;1.00
7129;DHT22;3606;52.930;8.644;2023-03-12T09:13:29;6.70;99.90
7129;DHT22;3606;52.930;8.644;2023-03-12T09:15:59;6.10;99.90
7129;DHT22;3606;52.930;8.644;2023-03-12T09:18:26;5.40;1.00
7129;DHT22;3606;52.930;8.644;2023-03-12T09:20:51;5.10;1.00
7129;DHT22;3606;52.930;8.644;2023-03-12T09:23:17;5.10;99.90
7129;DHT22;3606;52.930;8.644;2023-03-12T09:25:47;5.10;99.90
7129;DHT22;3606;52.930;8.644;2023-03-12T09:28:13;5.20;99.90
7129;DHT22;3606;52.930;8.644;2023-03-12T09:30:39;5.00;1.00
7129;DHT22;3606;52.930;8.644;2023-03-12T09:33:05;5.00;99.90
7129;DHT22;3606;52.930;8.644;2023-03-12T09:35:31;5.20;1.00
7129;DHT22;3606;52.930;8.644;2023-03-12T09:37:57;5.30;1.00
7129;DHT22;3606;52.930;8.644;2023-03-12T09:40:25;5.30;1.00
7129;DHT22;3606;52.930;8.644;2023-03-12T09:42:54;5.60;99.90
7129;DHT22;3606;52.930;8.644;2023-03-12T09:45:25;5.80;78.10
7129;DHT22;3606;52.930;8.644;2023-03-12T09:48:00;6.00;1.00
7129;DHT22;3606;52.930;8.644;2023-03-12T09:50:38;6.10;99.90
7129;DHT22;3606;52.930;8.644;2023-03-12T09:55:47;6.20;99.90
7129;DHT22;3606;52.930;8.644;2023-03-12T09:58:34;5.90;1.00
7129;DHT22;3606;52.930;8.644;2023-03-12T10:07:13;6.80;1.00
7129;DHT22;3606;52.930;8.644;2023-03-12T10:20:45;7.40;1.00
7129;DHT22;3606;52.930;8.644;2023-03-12T10:23:19;7.00;99.90
7129;DHT22;3606;52.930;8.644;2023-03-12T10:26:22;6.70;99.90
7129;DHT22;3606;52.930;8.644;2023-03-12T10:29:12;6.90;1.00
7129;DHT22;3606;52.930;8.644;2023-03-12T10:34:51;6.70;1.00
7129;DHT22;3606;52.930;8.644;2023-03-12T10:37:28;6.80;1.00
7129;DHT22;3606;52.930;8.644;2023-03-12T10:39:55;6.90;1.00
7129;DHT22;3606;52.930;8.644;2023-03-12T10:42:26;7.10;1.00
7129;DHT22;3606;52.930;8.644;2023-03-12T10:47:39;6.50;12.90
7129;DHT22;3606;52.930;8.644;2023-03-12T10:50:19;6.20;1.00
7129;DHT22;3606;52.930;8.644;2023-03-12T10:52:47;5.90;99.90
7129;DHT22;3606;52.930;8.644;2023-03-12T10:55:25;5.60;22.60
7129;DHT22;3606;52.930;8.644;2023-03-12T10:57:52;5.10;99.90
7129;DHT22;3606;52.930;8.644;2023-03-12T11:00:27;4.90;1.00
7129;DHT22;3606;52.930;8.644;2023-03-12T11:03:04;4.70;99.90
7129;DHT22;3606;52.930;8.644;2023-03-12T11:05:47;4.70;99.90
7129;DHT22;3606;52.930;8.644;2023-03-12T11:08:33;4.40;99.90
7129;DHT22;3606;52.930;8.644;2023-03-12T11:11:00;3.90;1.00
7129;DHT22;3606;52.930;8.644;2023-03-12T11:13:38;3.60;1.00
7129;DHT22;3606;52.930;8.644;2023-03-12T11:21:33;3.30;99.90
7129;DHT22;3606;52.930;8.644;2023-03-12T11:24:11;3.10;1.00
7129;DHT22;3606;52.930;8.644;2023-03-12T11:29:25;3.00;1.00
7129;DHT22;3606;52.930;8.644;2023-03-12T11:32:16;2.90;21.90
7129;DHT22;3606;52.930;8.644;2023-03-12T11:34:43;2.80;99.90
7129;DHT22;3606;52.930;8.644;2023-03-12T11:37:36;2.80;99.90
7129;DHT22;3606;52.930;8.644;2023-03-12T11:40:17;2.90;99.90
7129;DHT22;3606;52.930;8.644;2023-03-12T11:45:20;3.10;99.90
7129;DHT22;3606;52.930;8.644;2023-03-12T11:50:57;3.00;99.90
7129;DHT22;3606;52.930;8.644;2023-03-12T12:09:54;2.80;99.90
7129;DHT22;3606;52.930;8.644;2023-03-12T12:18:01;2.80;99.90
7129;DHT22;3606;52.930;8.644;2023-03-12T12:24:14;2.80;99.90
7129;DHT22;3606;52.930;8.644;2023-03-12T12:26:37;2.70;99.90
7129;DHT22;3606;52.930;8.644;2023-03-12T12:29:28;2.70;99.90
7129;DHT22;3606;52.930;8.644;2023-03-12T12:31:58;2.70;99.90
7129;DHT22;3606;52.930;8.644;2023-03-12T12:34:30;2.80;99.90
7129;DHT22;3606;52.930;8.644;2023-03-12T12:39:44;2.80;99.90
7129;DHT22;3606;52.930;8.644;2023-03-12T12:42:17;2.70;99.90
7129;DHT22;3606;52.930;8.644;2023-03-12T12:44:52;2.80;99.90
7129;DHT22;3606;52.930;8.644;2023-03-12T12:47:29;3.00;99.90
7129;DHT22;3606;52.930;8.644;2023-03-12T12:49:57;3.10;99.90
7129;DHT22;3606;52.930;8.644;2023-03-12T12:52:23;3.00;99.90
7129;DHT22;3606;52.930;8.644;2023-03-12T12:55:35;2.90;99.90
7129;DHT22;3606;52.930;8.644;2023-03-12T12:57:56;2.90;99.90
7129;DHT22;3606;52.930;8.644;2023-03-12T13:00:48;2.90;99.90
7129;DHT22;3606;52.930;8.644;2023-03-12T13:03:18;3.00;99.90
7129;DHT22;3606;52.930;8.644;2023-03-12T13:13:39;3.00;99.90
7129;DHT22;3606;52.930;8.644;2023-03-12T13:16:29;3.00;99.90
7129;DHT22;3606;52.930;8.644;2023-03-12T13:21:44;3.10;99.90
7129;DHT22;3606;52.930;8.644;2023-03-12T13:24:21;3.10;99.90
7129;DHT22;3606;52.930;8.644;2023-03-12T13:26:57;3.20;99.90
7129;DHT22;3606;52.930;8.644;2023-03-12T13:31:53;3.10;99.90
7129;DHT22;3606;52.930;8.644;2023-03-12T13:36:46;3.20;99.90
7129;DHT22;3606;52.930;8.644;2023-03-12T13:41:54;3.20;99.90
7129;DHT22;3606;52.930;8.644;2023-03-12T13:55:20;3.60;99.90
7129;DHT22;3606;52.930;8.644;2023-03-12T13:57:49;3.60;99.90
7129;DHT22;3606;52.930;8.644;2023-03-12T14:02:54;3.60;99.90
7129;DHT22;3606;52.930;8.644;2023-03-12T14:05:21;3.60;99.90
7129;DHT22;3606;52.930;8.644;2023-03-12T14:16:43;3.70;99.90
7129;DHT22;3606;52.930;8.644;2023-03-12T14:19:27;3.80;99.90
7129;DHT22;3606;52.930;8.644;2023-03-12T14:21:55;3.70;99.90
7129;DHT22;3606;52.930;8.644;2023-03-12T14:24:32;3.70;99.90
7129;DHT22;3606;52.930;8.644;2023-03-12T14:27:00;3.80;99.90
7129;DHT22;3606;52.930;8.644;2023-03-12T14:32:04;3.90;99.90
7129;DHT22;3606;52.930;8.644;2023-03-12T14:34:42;4.00;99.90
7129;DHT22;3606;52.930;8.644;2023-03-12T14:37:14;4.00;99.90
7129;DHT22;3606;52.930;8.644;2023-03-12T14:42:37;4.10;99.90
7129;DHT22;3606;52.930;8.644;2023-03-12T14:45:12;4.20;99.90
7129;DHT22;3606;52.930;8.644;2023-03-12T14:47:46;4.30;99.90
7129;DHT22;3606;52.930;8.644;2023-03-12T14:50:24;4.30;99.90
7129;DHT22;3606;52.930;8.644;2023-03-12T14:52:51;4.30;99.90
7129;DHT22;3606;52.930;8.644;2023-03-12T14:55:24;4.20;99.90
7129;DHT22;3606;52.930;8.644;2023-03-12T14:58:17;4.20;99.90
7129;DHT22;3606;52.930;8.644;2023-03-12T15:00:44;4.30;99.90
7129;DHT22;3606;52.930;8.644;2023-03-12T15:03:18;4.30;99.90
7129;DHT22;3606;52.930;8.644;2023-03-12T15:05:47;4.40;99.90
7129;DHT22;3606;52.930;8.644;2023-03-12T15:08:18;4.50;99.90
7129;DHT22;3606;52.930;8.644;2023-03-12T15:10:50;4.50;99.90
7129;DHT22;3606;52.930;8.644;2023-03-12T15:13:16;4.50;99.90
7129;DHT22;3606;52.930;8.644;2023-03-12T15:15:46;4.50;99.90
7129;DHT22;3606;52.930;8.644;2023-03-12T15:20:42;4.50;99.90
7129;DHT22;3606;52.930;8.644;2023-03-12T15:23:11;4.60;99.90
7129;DHT22;3606;52.930;8.644;2023-03-12T15:25:37;4.60;99.90
7129;DHT22;3606;52.930;8.644;2023-03-12T15:30:37;4.80;99.90
7129;DHT22;3606;52.930;8.644;2023-03-12T15:35:32;5.00;99.90
7129;DHT22;3606;52.930;8.644;2023-03-12T15:37:58;5.00;99.90
7129;DHT22;3606;52.930;8.644;2023-03-12T15:40:26;5.00;99.90
7129;DHT22;3606;52.930;8.644;2023-03-12T15:42:54;5.00;99.90
7129;DHT22;3606;52.930;8.644;2023-03-12T15:45:24;5.10;99.90
7129;DHT22;3606;52.930;8.644;2023-03-12T15:47:53;5.10;99.90
7129;DHT22;3606;52.930;8.644;2023-03-12T15:50:39;5.20;99.90
7129;DHT22;3606;52.930;8.644;2023-03-12T15:55:38;5.30;99.90
7129;DHT22;3606;52.930;8.644;2023-03-12T15:58:26;5.50;99.90
7129;DHT22;3606;52.930;8.644;2023-03-12T16:00:52;5.50;99.90
7129;DHT22;3606;52.930;8.644;2023-03-12T16:03:20;5.60;99.90
7129;DHT22;3606;52.930;8.644;2023-03-12T16:05:48;5.70;99.90
7129;DHT22;3606;52.930;8.644;2023-03-12T16:08:15;5.70;99.90
7129;DHT22;3606;52.930;8.644;2023-03-12T16:10:42;5.70;99.90
7129;DHT22;3606;52.930;8.644;2023-03-12T16:13:11;5.80;99.90
7129;DHT22;3606;52.930;8.644;2023-03-12T16:15:38;5.80;99.90
7129;DHT22;3606;52.930;8.644;2023-03-12T16:18:09;5.90;99.90
7129;DHT22;3606;52.930;8.644;2023-03-12T16:20:35;5.90;99.90
7129;DHT22;3606;52.930;8.644;2023-03-12T16:23:01;6.00;99.90
7129;DHT22;3606;52.930;8.644;2023-03-12T16:25:26;6.00;99.90
7129;DHT22;3606;52.930;8.644;2023-03-12T16:27:55;6.00;99.90
7129;DHT22;3606;52.930;8.644;2023-03-12T16:30:29;6.00;99.90
7129;DHT22;3606;52.930;8.644;2023-03-12T16:32:56;6.10;99.90
7129;DHT22;3606;52.930;8.644;2023-03-12T16:35:23;6.10;99.90
7129;DHT22;3606;52.930;8.644;2023-03-12T16:37:49;6.10;99.90
7129;DHT22;3606;52.930;8.644;2023-03-12T16:40:15;6.10;99.90
7129;DHT22;3606;52.930;8.644;2023-03-12T16:42:46;6.20;99.90
7129;DHT22;3606;52.930;8.644;2023-03-12T16:45:15;6.20;99.90
7129;DHT22;3606;52.930;8.644;2023-03-12T16:47:41;6.20;99.90
7129;DHT22;3606;52.930;8.644;2023-03-12T16:50:19;6.20;99.90
7129;DHT22;3606;52.930;8.644;2023-03-12T16:52:45;6.30;99.90
7129;DHT22;3606;52.930;8.644;2023-03-12T16:55:14;6.30;99.90
7129;DHT22;3606;52.930;8.644;2023-03-12T16:57:44;6.30;99.90
7129;DHT22;3606;52.930;8.644;2023-03-12T17:00:19;6.30;99.90
7129;DHT22;3606;52.930;8.644;2023-03-12T17:02:46;6.30;99.90
7129;DHT22;3606;52.930;8.644;2023-03-12T17:05:12;6.30;99.90
7129;DHT22;3606;52.930;8.644;2023-03-12T17:07:38;6.40;99.90
7129;DHT22;3606;52.930;8.644;2023-03-12T17:10:04;6.30;99.90
7129;DHT22;3606;52.930;8.644;2023-03-12T17:12:33;6.30;99.90
7129;DHT22;3606;52.930;8.644;2023-03-12T17:15:02;6.30;99.90
7129;DHT22;3606;52.930;8.644;2023-03-12T17:17:29;6.30;99.90
7129;DHT22;3606;52.930;8.644;2023-03-12T17:19:55;6.40;99.90
7129;DHT22;3606;52.930;8.644;2023-03-12T17:22:24;6.30;99.90
7129;DHT22;3606;52.930;8.644;2023-03-12T17:24:50;6.30;99.90
7129;DHT22;3606;52.930;8.644;2023-03-12T17:27:16;6.40;99.90
7129;DHT22;3606;52.930;8.644;2023-03-12T17:29:41;6.40;99.90
7129;DHT22;3606;52.930;8.644;2023-03-12T17:32:07;6.40;99.90
7129;DHT22;3606;52.930;8.644;2023-03-12T17:34:32;6.50;99.90
7129;DHT22;3606;52.930;8.644;2023-03-12T17:36:58;6.50;99.90
7129;DHT22;3606;52.930;8.644;2023-03-12T17:39:24;6.60;99.90
7129;DHT22;3606;52.930;8.644;2023-03-12T17:41:50;6.50;99.90
7129;DHT22;3606;52.930;8.644;2023-03-12T17:44:16;6.50;99.90
7129;DHT22;3606;52.930;8.644;2023-03-12T17:46:42;6.40;99.90
7129;DHT22;3606;52.930;8.644;2023-03-12T17:49:08;6.50;99.90
7129;DHT22;3606;52.930;8.644;2023-03-12T17:51:33;6.50;99.90
7129;DHT22;3606;52.930;8.644;2023-03-12T17:53:59;6.60;99.90
7129;DHT22;3606;52.930;8.644;2023-03-12T17:56:25;6.60;99.90
7129;DHT22;3606;52.930;8.644;2023-03-12T17:58:50;6.70;99.90
7129;DHT22;3606;52.930;8.644;2023-03-12T18:01:16;6.70;99.90
7129;DHT22;3606;52.930;8.644;2023-03-12T18:03:41;6.70;99.90
7129;DHT22;3606;52.930;8.644;2023-03-12T18:06:09;6.70;99.90
7129;DHT22;3606;52.930;8.644;2023-03-12T18:08:34;6.70;99.90
7129;DHT22;3606;52.930;8.644;2023-03-12T18:11:00;6.80;99.90
7129;DHT22;3606;52.930;8.644;2023-03-12T18:13:28;6.80;99.90
7129;DHT22;3606;52.930;8.644;2023-03-12T18:15:55;6.70;99.90
7129;DHT22;3606;52.930;8.644;2023-03-12T18:18:22;6.70;99.90
7129;DHT22;3606;52.930;8.644;2023-03-12T18:20:48;6.70;99.90
7129;DHT22;3606;52.930;8.644;2023-03-12T18:23:15;6.70;99.90
7129;DHT22;3606;52.930;8.644;2023-03-12T18:25:41;6.70;99.90
7129;DHT22;3606;52.930;8.644;2023-03-12T18:28:06;6.70;99.90
7129;DHT22;3606;52.930;8.644;2023-03-12T18:30:32;6.70;99.90
7129;DHT22;3606;52.930;8.644;2023-03-12T18:32:58;6.70;99.90
7129;DHT22;3606;52.930;8.644;2023-03-12T18:35:23;6.70;99.90
7129;DHT22;3606;52.930;8.644;2023-03-12T18:37:55;6.80;99.90